createdAt,value
2017-08-16T00:00:18.352Z,83.40
2017-08-16T00:02:46.455Z,83.50
2017-08-16T00:05:14.640Z,83.60
2017-08-16T00:07:43.038Z,83.60
2017-08-16T00:10:12.098Z,83.70
2017-08-16T00:12:40.116Z,83.60
2017-08-16T00:15:08.856Z,83.50
2017-08-16T00:17:37.334Z,83.50
2017-08-16T00:20:05.645Z,83.30
2017-08-16T00:22:34.236Z,83.40
2017-08-16T00:25:03.378Z,82.90
2017-08-16T00:27:31.326Z,82.90
2017-08-16T00:29:59.755Z,83.00
2017-08-16T00:32:28.257Z,82.80
2017-08-16T00:34:57.036Z,82.70
2017-08-16T00:37:25.575Z,82.80
2017-08-16T00:39:53.579Z,83.10
2017-08-16T00:42:22.067Z,82.30
2017-08-16T00:44:51.248Z,82.30
2017-08-16T00:47:19.439Z,82.30
2017-08-16T00:49:48.479Z,82.20
2017-08-16T00:52:17.577Z,82.10
2017-08-16T00:54:45.975Z,82.30
2017-08-16T00:57:14.331Z,82.40
2017-08-16T00:59:42.312Z,82.30
2017-08-16T01:02:10.246Z,82.60
2017-08-16T01:04:39.001Z,82.60
2017-08-16T01:07:07.275Z,82.60
2017-08-16T01:09:35.556Z,82.20
2017-08-16T01:12:03.898Z,82.10
2017-08-16T01:14:32.360Z,82.10
2017-08-16T01:17:00.727Z,82.10
2017-08-16T01:19:28.766Z,81.50
2017-08-16T01:21:57.295Z,81.80
2017-08-16T01:24:25.748Z,82.00
2017-08-16T01:26:54.165Z,82.00
2017-08-16T01:29:22.511Z,82.10
2017-08-16T01:31:51.013Z,81.80
2017-08-16T01:34:19.471Z,81.70
2017-08-16T01:36:48.025Z,82.00
2017-08-16T01:39:16.482Z,81.80
2017-08-16T01:41:45.163Z,81.80
2017-08-16T01:44:13.714Z,81.70
2017-08-16T01:46:42.387Z,81.40
2017-08-16T01:49:10.687Z,81.80
2017-08-16T01:51:39.145Z,81.80
2017-08-16T01:54:07.769Z,81.50
2017-08-16T01:56:35.725Z,81.50
2017-08-16T01:59:03.952Z,81.40
2017-08-16T02:01:32.483Z,81.10
2017-08-16T02:04:00.549Z,81.30
2017-08-16T02:06:28.656Z,81.30
2017-08-16T02:08:58.095Z,81.70
2017-08-16T02:11:25.885Z,81.90
2017-08-16T02:13:53.870Z,81.60
2017-08-16T02:16:22.310Z,81.50
2017-08-16T02:18:50.519Z,81.50
2017-08-16T02:21:19.153Z,81.50
2017-08-16T02:23:47.167Z,81.60
2017-08-16T02:26:15.243Z,81.60
2017-08-16T02:28:43.342Z,81.40
2017-08-16T02:31:12.061Z,81.50
2017-08-16T02:33:40.636Z,81.70
2017-08-16T02:36:09.041Z,81.70
2017-08-16T02:38:37.036Z,81.80
2017-08-16T02:41:05.578Z,81.70
2017-08-16T02:43:34.223Z,81.90
2017-08-16T02:46:02.154Z,82.00
2017-08-16T02:48:30.557Z,81.80
2017-08-16T02:50:59.764Z,82.00
2017-08-16T02:53:28.042Z,82.00
2017-08-16T02:55:56.445Z,82.00
2017-08-16T02:58:24.829Z,82.20
2017-08-16T03:00:53.200Z,82.00
2017-08-16T03:03:21.876Z,81.70
2017-08-16T03:05:49.947Z,81.60
2017-08-16T03:08:17.826Z,81.50
2017-08-16T03:10:45.904Z,81.50
2017-08-16T03:13:14.598Z,81.40
2017-08-16T03:15:43.134Z,81.40
2017-08-16T03:18:11.506Z,81.60
2017-08-16T03:20:40.140Z,81.80
2017-08-16T03:23:08.651Z,81.90
2017-08-16T03:25:36.985Z,81.90
2017-08-16T03:28:06.630Z,82.20
2017-08-16T03:30:35.488Z,82.20
2017-08-16T03:33:04.207Z,82.10
2017-08-16T03:35:32.908Z,82.20
2017-08-16T03:38:00.892Z,82.00
2017-08-16T03:40:29.970Z,82.10
2017-08-16T03:42:57.857Z,82.10
2017-08-16T03:45:26.347Z,82.00
2017-08-16T03:47:55.392Z,81.90
2017-08-16T03:50:24.351Z,81.80
2017-08-16T03:52:52.383Z,81.80
2017-08-16T03:55:21.089Z,81.70
2017-08-16T03:57:49.572Z,81.60
2017-08-16T04:00:18.170Z,81.60
2017-08-16T04:02:46.274Z,81.60
2017-08-16T04:05:14.594Z,81.20
2017-08-16T04:07:43.959Z,81.60
2017-08-16T04:12:47.675Z,81.80
2017-08-16T04:15:16.135Z,81.70
2017-08-16T04:17:43.899Z,81.70
2017-08-16T04:20:13.222Z,81.70
2017-08-16T04:22:41.429Z,81.70
2017-08-16T04:25:09.110Z,81.60
2017-08-16T04:27:37.220Z,81.30
2017-08-16T04:30:05.553Z,81.40
2017-08-16T04:32:33.677Z,81.50
2017-08-16T04:35:02.916Z,81.60
2017-08-16T04:37:30.602Z,81.50
2017-08-16T04:39:58.738Z,81.30
2017-08-16T04:42:26.895Z,81.30
2017-08-16T04:44:55.526Z,81.50
2017-08-16T04:47:23.934Z,81.50
2017-08-16T04:49:52.871Z,81.70
2017-08-16T04:52:21.264Z,81.70
2017-08-16T04:54:49.541Z,81.70
2017-08-16T04:57:17.743Z,81.80
2017-08-16T04:59:46.019Z,81.90
2017-08-16T05:02:14.561Z,81.80
2017-08-16T05:04:42.855Z,82.10
2017-08-16T05:07:11.060Z,82.10
2017-08-16T05:09:39.170Z,82.30
2017-08-16T05:12:07.339Z,82.20
2017-08-16T05:14:35.588Z,82.30
2017-08-16T05:17:03.668Z,82.30
2017-08-16T05:19:31.507Z,82.30
2017-08-16T05:22:00.415Z,82.20
2017-08-16T05:24:28.505Z,82.20
2017-08-16T05:26:57.380Z,82.20
2017-08-16T05:29:25.326Z,82.20
2017-08-16T05:31:53.457Z,82.20
2017-08-16T05:34:21.425Z,82.30
2017-08-16T05:36:49.756Z,82.20
2017-08-16T05:39:18.391Z,82.10
2017-08-16T05:41:47.205Z,82.10
2017-08-16T05:44:15.662Z,82.20
2017-08-16T05:46:43.910Z,82.10
2017-08-16T05:49:12.186Z,82.00
2017-08-16T05:51:40.554Z,82.00
2017-08-16T05:54:09.146Z,81.20
2017-08-16T05:56:37.883Z,81.20
2017-08-16T05:59:05.773Z,80.90
2017-08-16T06:01:33.744Z,81.20
2017-08-16T06:04:01.810Z,81.30
2017-08-16T06:06:29.903Z,81.10
2017-08-16T06:08:57.780Z,80.80
2017-08-16T06:11:25.864Z,80.20
2017-08-16T06:13:54.012Z,80.20
2017-08-16T06:16:22.332Z,80.40
2017-08-16T06:18:51.086Z,80.40
2017-08-16T06:21:19.146Z,80.50
2017-08-16T06:23:47.339Z,80.70
2017-08-16T06:26:15.683Z,80.70
2017-08-16T06:28:44.573Z,80.50
2017-08-16T06:31:13.632Z,80.30
2017-08-16T06:33:41.927Z,79.70
2017-08-16T06:36:10.104Z,79.40
2017-08-16T06:41:12.381Z,79.80
2017-08-16T06:43:40.730Z,80.00
2017-08-16T06:46:09.618Z,79.90
2017-08-16T06:48:38.379Z,79.90
2017-08-16T06:51:06.239Z,79.90
2017-08-16T06:53:34.771Z,79.30
2017-08-16T06:56:03.105Z,79.10
2017-08-16T06:58:31.817Z,78.80
2017-08-16T07:01:00.600Z,78.90
2017-08-16T07:03:29.270Z,79.00
2017-08-16T07:05:57.758Z,78.20
2017-08-16T07:08:25.809Z,78.40
2017-08-16T07:10:53.639Z,78.70
2017-08-16T07:13:21.483Z,78.60
2017-08-16T07:15:49.337Z,78.30
2017-08-16T07:18:18.291Z,78.60
2017-08-16T07:20:47.087Z,78.90
2017-08-16T07:23:15.905Z,78.70
2017-08-16T07:25:45.861Z,78.10
2017-08-16T07:28:16.015Z,78.10
2017-08-16T07:30:46.276Z,78.10
2017-08-16T07:33:14.489Z,78.70
2017-08-16T07:35:42.838Z,78.70
2017-08-16T07:38:11.914Z,78.40
2017-08-16T07:40:39.782Z,78.30
2017-08-16T07:43:07.779Z,78.10
2017-08-16T07:45:36.207Z,78.40
2017-08-16T07:48:03.990Z,78.00
2017-08-16T07:50:32.029Z,78.10
2017-08-16T07:53:00.677Z,77.50
2017-08-16T07:55:28.732Z,77.40
2017-08-16T07:57:56.936Z,77.40
2017-08-16T08:00:25.436Z,76.40
2017-08-16T08:02:54.466Z,76.40
2017-08-16T08:05:22.703Z,76.40
2017-08-16T08:07:51.115Z,76.60
2017-08-16T08:10:19.299Z,76.40
2017-08-16T08:12:48.266Z,76.50
2017-08-16T08:15:17.272Z,76.50
2017-08-16T08:17:45.239Z,76.20
2017-08-16T08:20:13.213Z,76.40
2017-08-16T08:22:41.299Z,76.80
2017-08-16T08:25:09.443Z,77.00
2017-08-16T08:27:37.861Z,76.60
2017-08-16T08:30:06.345Z,76.50
2017-08-16T08:32:34.760Z,76.40
2017-08-16T08:35:02.810Z,75.70
2017-08-16T08:37:30.929Z,75.30
2017-08-16T08:39:59.197Z,75.30
2017-08-16T08:42:27.017Z,75.10
2017-08-16T08:44:55.676Z,75.40
2017-08-16T08:47:24.364Z,75.40
2017-08-16T08:49:52.751Z,74.50
2017-08-16T08:52:21.617Z,74.40
2017-08-16T08:54:50.005Z,73.30
2017-08-16T08:57:17.670Z,73.30
2017-08-16T08:59:45.566Z,72.70
2017-08-16T09:02:13.056Z,72.00
2017-08-16T09:04:40.482Z,71.40
2017-08-16T09:07:08.320Z,72.00
2017-08-16T09:09:35.755Z,72.00
2017-08-16T09:12:03.259Z,71.10
2017-08-16T09:14:30.830Z,71.00
2017-08-16T09:16:58.299Z,70.30
2017-08-16T09:19:26.197Z,70.40
2017-08-16T09:21:54.078Z,69.40
2017-08-16T09:24:21.975Z,68.90
2017-08-16T09:26:49.454Z,68.90
2017-08-16T09:29:16.929Z,67.90
2017-08-16T09:31:44.410Z,66.90
2017-08-16T09:34:11.887Z,65.80
2017-08-16T09:36:39.854Z,63.50
2017-08-16T09:39:07.735Z,62.80
2017-08-16T09:41:35.595Z,61.20
2017-08-16T09:44:03.493Z,59.90
2017-08-16T09:46:30.990Z,59.90
2017-08-16T09:48:58.456Z,59.10
2017-08-16T09:51:25.970Z,58.30
2017-08-16T09:53:53.885Z,55.70
2017-08-16T09:56:21.388Z,55.70
2017-08-16T09:58:48.877Z,55.40
2017-08-16T10:01:17.042Z,55.70
2017-08-16T10:03:44.908Z,55.20
2017-08-16T10:06:12.769Z,55.70
2017-08-16T10:08:40.274Z,55.70
2017-08-16T10:11:07.713Z,55.60
2017-08-16T10:13:35.328Z,55.90
2017-08-16T10:16:02.737Z,55.00
2017-08-16T10:18:30.222Z,54.80
2017-08-16T10:20:57.702Z,55.60
2017-08-16T10:23:25.165Z,56.10
2017-08-16T10:25:52.622Z,56.40
2017-08-16T10:28:20.144Z,56.40
2017-08-16T10:30:47.984Z,56.40
2017-08-16T10:33:15.462Z,56.40
2017-08-16T10:35:43.295Z,57.00
2017-08-16T10:38:10.775Z,57.00
2017-08-16T10:40:38.262Z,57.90
2017-08-16T10:43:06.169Z,59.00
2017-08-16T10:45:33.634Z,59.00
2017-08-16T10:48:01.134Z,59.20
2017-08-16T10:50:28.691Z,59.40
2017-08-16T10:52:56.816Z,59.20
2017-08-16T10:55:24.783Z,60.10
2017-08-16T10:57:52.663Z,60.20
2017-08-16T11:00:20.557Z,60.40
2017-08-16T11:02:48.044Z,60.40
2017-08-16T11:05:15.554Z,60.00
2017-08-16T11:07:43.040Z,59.60
2017-08-16T11:10:10.540Z,59.90
2017-08-16T11:12:38.027Z,59.70
2017-08-16T11:15:06.916Z,59.60
2017-08-16T11:17:34.776Z,59.40
2017-08-16T11:20:02.279Z,59.40
2017-08-16T11:22:30.168Z,60.20
2017-08-16T11:24:57.657Z,60.20
2017-08-16T11:27:25.136Z,60.40
2017-08-16T11:29:53.259Z,61.00
2017-08-16T11:32:20.779Z,61.20
2017-08-16T11:34:48.195Z,61.00
2017-08-16T11:37:15.609Z,60.70
2017-08-16T11:39:43.023Z,60.80
2017-08-16T11:42:10.458Z,59.80
2017-08-16T11:44:37.882Z,59.50
2017-08-16T11:47:05.295Z,59.30
2017-08-16T11:49:32.720Z,60.30
2017-08-16T11:52:00.531Z,59.50
2017-08-16T11:54:27.952Z,59.50
2017-08-16T11:56:55.795Z,58.70
2017-08-16T11:59:23.221Z,58.70
2017-08-16T12:01:50.662Z,58.90
2017-08-16T12:04:18.100Z,58.50
2017-08-16T12:06:45.510Z,57.90
2017-08-16T12:09:12.935Z,57.80
2017-08-16T12:11:40.792Z,56.50
2017-08-16T12:14:08.190Z,56.50
2017-08-16T12:16:35.616Z,56.90
2017-08-16T12:19:03.060Z,57.50
2017-08-16T12:21:30.808Z,58.10
2017-08-16T12:23:58.202Z,57.40
2017-08-16T12:26:25.635Z,56.90
2017-08-16T12:28:53.056Z,56.00
2017-08-16T12:31:20.482Z,56.70
2017-08-16T12:33:47.911Z,56.10
2017-08-16T12:36:15.852Z,55.80
2017-08-16T12:38:43.662Z,55.40
2017-08-16T12:41:11.140Z,55.40
2017-08-16T12:43:38.556Z,55.90
2017-08-16T12:46:06.025Z,56.00
2017-08-16T12:48:33.500Z,56.20
2017-08-16T12:51:00.970Z,56.40
2017-08-16T12:53:28.410Z,55.70
2017-08-16T12:55:55.852Z,55.80
2017-08-16T12:58:23.268Z,55.60
2017-08-16T13:00:50.888Z,56.20
2017-08-16T13:03:19.190Z,56.70
2017-08-16T13:05:46.655Z,56.70
2017-08-16T13:08:14.367Z,56.80
2017-08-16T13:10:41.870Z,56.80
2017-08-16T13:13:09.344Z,58.30
2017-08-16T13:15:37.047Z,58.50
2017-08-16T13:18:05.851Z,57.80
2017-08-16T13:20:33.465Z,57.40
2017-08-16T13:23:01.340Z,57.00
2017-08-16T13:25:29.054Z,57.40
2017-08-16T13:27:57.236Z,57.10
2017-08-16T13:30:25.213Z,57.00
2017-08-16T13:32:52.682Z,57.00
2017-08-16T13:35:20.539Z,56.50
2017-08-16T13:37:48.399Z,56.50
2017-08-16T13:40:16.483Z,55.90
2017-08-16T13:42:43.918Z,54.10
2017-08-16T13:45:11.368Z,53.70
2017-08-16T13:47:38.855Z,54.80
2017-08-16T13:50:06.274Z,53.30
2017-08-16T13:52:33.692Z,53.10
2017-08-16T13:55:01.155Z,54.80
2017-08-16T13:57:28.583Z,55.40
2017-08-16T13:59:56.033Z,54.80
2017-08-16T14:02:23.515Z,55.00
2017-08-16T14:04:50.962Z,54.80
2017-08-16T14:07:18.424Z,54.10
2017-08-16T14:09:45.902Z,53.80
2017-08-16T14:12:13.347Z,53.90
2017-08-16T14:14:40.801Z,54.40
2017-08-16T14:17:08.316Z,54.30
2017-08-16T14:19:35.776Z,54.60
2017-08-16T14:22:03.239Z,53.60
2017-08-16T14:24:30.708Z,53.80
2017-08-16T14:26:58.535Z,53.80
2017-08-16T14:29:25.998Z,53.80
2017-08-16T14:31:53.471Z,53.60
2017-08-16T14:34:21.064Z,52.90
2017-08-16T14:36:48.547Z,53.10
2017-08-16T14:39:16.402Z,52.40
2017-08-16T14:41:43.852Z,52.40
2017-08-16T14:44:12.097Z,52.30
2017-08-16T14:46:39.564Z,51.60
2017-08-16T14:49:07.083Z,51.80
2017-08-16T14:51:34.934Z,51.60
2017-08-16T14:54:02.448Z,51.60
2017-08-16T14:56:29.896Z,52.20
2017-08-16T14:58:57.332Z,52.10
2017-08-16T15:01:25.227Z,52.30
2017-08-16T15:03:52.668Z,52.30
2017-08-16T15:06:20.149Z,52.90
2017-08-16T15:08:47.656Z,52.60
2017-08-16T15:11:15.095Z,53.40
2017-08-16T15:13:42.597Z,53.30
2017-08-16T15:16:10.084Z,52.90
2017-08-16T15:18:37.926Z,53.70
2017-08-16T15:21:05.383Z,53.70
2017-08-16T15:23:32.881Z,53.90
2017-08-16T15:26:00.827Z,54.00
2017-08-16T15:28:28.271Z,54.00
2017-08-16T15:30:55.814Z,53.90
2017-08-16T15:33:23.507Z,54.10
2017-08-16T15:35:50.977Z,54.40
2017-08-16T15:38:19.616Z,54.30
2017-08-16T15:40:48.637Z,54.50
2017-08-16T15:43:16.086Z,54.70
2017-08-16T15:45:43.541Z,54.70
2017-08-16T15:48:11.007Z,54.80
2017-08-16T15:50:38.525Z,54.90
2017-08-16T15:53:06.007Z,55.00
2017-08-16T15:55:33.857Z,55.80
2017-08-16T15:58:01.301Z,55.80
2017-08-16T16:00:28.784Z,55.80
2017-08-16T16:02:56.253Z,55.90
2017-08-16T16:05:23.693Z,56.30
2017-08-16T16:07:52.776Z,56.40
2017-08-16T16:10:20.242Z,56.40
2017-08-16T16:12:47.674Z,56.10
2017-08-16T16:15:16.019Z,56.30
2017-08-16T16:17:43.464Z,56.50
2017-08-16T16:20:10.920Z,56.80
2017-08-16T16:22:38.412Z,57.00
2017-08-16T16:25:06.358Z,57.20
2017-08-16T16:27:33.793Z,57.20
2017-08-16T16:30:01.289Z,57.50
2017-08-16T16:32:28.765Z,57.40
2017-08-16T16:34:56.211Z,57.60
2017-08-16T16:37:23.688Z,57.60
2017-08-16T16:39:51.123Z,57.40
2017-08-16T16:42:18.566Z,57.60
2017-08-16T16:44:46.000Z,57.60
2017-08-16T16:47:13.421Z,57.50
2017-08-16T16:49:40.836Z,57.70
2017-08-16T16:52:08.294Z,57.80
2017-08-16T16:54:35.715Z,57.80
2017-08-16T16:57:03.541Z,58.10
2017-08-16T16:59:30.999Z,58.10
2017-08-16T17:01:58.447Z,57.70
2017-08-16T17:04:25.887Z,57.30
2017-08-16T17:06:54.160Z,57.50
2017-08-16T17:09:22.105Z,57.40
2017-08-16T17:11:49.552Z,57.40
2017-08-16T17:14:17.008Z,57.70
2017-08-16T17:16:44.444Z,57.60
2017-08-16T17:19:11.905Z,57.80
2017-08-16T17:21:39.344Z,57.90
2017-08-16T17:24:07.171Z,58.70
2017-08-16T17:26:34.820Z,58.70
2017-08-16T17:29:03.116Z,58.20
2017-08-16T17:31:30.555Z,58.00
2017-08-16T17:33:57.978Z,58.10
2017-08-16T17:36:25.828Z,58.30
2017-08-16T17:38:53.260Z,58.30
2017-08-16T17:41:20.726Z,58.80
2017-08-16T17:43:48.596Z,59.30
2017-08-16T17:46:16.056Z,59.30
2017-08-16T17:48:43.504Z,58.90
2017-08-16T17:51:10.968Z,59.00
2017-08-16T17:53:38.402Z,59.20
2017-08-16T17:56:06.250Z,59.90
2017-08-16T17:58:33.715Z,59.90
2017-08-16T18:01:01.184Z,59.80
2017-08-16T18:03:29.032Z,60.60
2017-08-16T18:05:56.498Z,60.60
2017-08-16T18:08:23.963Z,60.60
2017-08-16T18:10:51.393Z,61.00
2017-08-16T18:13:18.961Z,60.90
2017-08-16T18:15:46.382Z,61.00
2017-08-16T18:18:14.254Z,61.80
2017-08-16T18:20:42.168Z,62.00
2017-08-16T18:23:09.609Z,62.00
2017-08-16T18:25:38.197Z,62.20
2017-08-16T18:28:05.669Z,62.50
2017-08-16T18:30:33.126Z,62.70
2017-08-16T18:33:00.543Z,62.90
2017-08-16T18:35:28.380Z,63.30
2017-08-16T18:37:55.791Z,63.30
2017-08-16T18:40:23.305Z,63.50
2017-08-16T18:42:50.835Z,63.50
2017-08-16T18:45:18.312Z,63.50
2017-08-16T18:47:45.811Z,63.80
2017-08-16T18:50:14.051Z,64.10
2017-08-16T18:52:41.512Z,64.40
2017-08-16T18:55:08.984Z,64.70
2017-08-16T18:57:36.435Z,65.00
2017-08-16T19:00:03.905Z,65.20
2017-08-16T19:02:32.852Z,65.40
2017-08-16T19:05:01.851Z,65.70
2017-08-16T19:07:29.767Z,65.90
2017-08-16T19:09:57.245Z,65.90
2017-08-16T19:12:24.730Z,66.10
2017-08-16T19:14:52.170Z,66.20
2017-08-16T19:17:19.682Z,66.40
2017-08-16T19:19:47.195Z,66.70
2017-08-16T19:22:14.748Z,66.90
2017-08-16T19:24:42.275Z,67.10
2017-08-16T19:27:10.152Z,67.40
2017-08-16T19:29:38.025Z,67.50
2017-08-16T19:32:05.991Z,67.70
2017-08-16T19:34:33.555Z,67.70
2017-08-16T19:37:01.015Z,68.10
2017-08-16T19:39:28.527Z,68.30
2017-08-16T19:41:56.004Z,68.50
2017-08-16T19:44:23.985Z,68.80
2017-08-16T19:46:51.492Z,68.90
2017-08-16T19:49:20.269Z,69.20
2017-08-16T19:51:47.724Z,69.50
2017-08-16T19:54:15.601Z,69.80
2017-08-16T19:56:43.508Z,70.10
2017-08-16T19:59:11.074Z,70.10
2017-08-16T20:01:38.575Z,70.20
2017-08-16T20:04:06.052Z,70.40
2017-08-16T20:06:33.576Z,70.50
2017-08-16T20:09:01.052Z,70.80
2017-08-16T20:11:28.593Z,70.90
2017-08-16T20:13:56.096Z,71.10
2017-08-16T20:16:23.576Z,71.20
2017-08-16T20:18:51.480Z,71.60
2017-08-16T20:21:18.924Z,71.60
2017-08-16T20:23:46.830Z,71.70
2017-08-16T20:26:14.361Z,71.70
2017-08-16T20:28:42.223Z,72.00
2017-08-16T20:31:10.545Z,72.20
2017-08-16T20:33:38.062Z,72.20
2017-08-16T20:36:05.530Z,72.30
2017-08-16T20:38:33.568Z,72.60
2017-08-16T20:41:01.108Z,72.60
2017-08-16T20:43:28.596Z,72.70
2017-08-16T20:45:56.047Z,72.70
2017-08-16T20:48:23.502Z,72.80
2017-08-16T20:50:50.960Z,72.90
2017-08-16T20:53:18.416Z,73.10
2017-08-16T20:55:46.751Z,73.20
2017-08-16T20:58:14.720Z,73.30
2017-08-16T21:00:42.243Z,73.30
2017-08-16T21:03:09.716Z,73.50
2017-08-16T21:05:37.130Z,73.50
2017-08-16T21:08:04.609Z,73.60
2017-08-16T21:10:32.104Z,73.80
2017-08-16T21:12:59.579Z,73.80
2017-08-16T21:15:27.109Z,73.60
2017-08-16T21:17:54.617Z,73.70
2017-08-16T21:20:22.122Z,73.90
2017-08-16T21:22:49.620Z,73.80
2017-08-16T21:25:17.094Z,73.80
2017-08-16T21:27:44.544Z,73.90
2017-08-16T21:30:12.078Z,73.80
2017-08-16T21:32:39.570Z,74.00
2017-08-16T21:35:07.056Z,74.10
2017-08-16T21:37:34.580Z,74.10
2017-08-16T21:40:02.547Z,74.20
2017-08-16T21:42:30.044Z,74.20
2017-08-16T21:44:57.499Z,74.20
2017-08-16T21:47:25.035Z,74.30
2017-08-16T21:49:53.222Z,74.30
2017-08-16T21:52:20.761Z,74.30
2017-08-16T21:54:48.661Z,74.40
2017-08-16T21:57:16.270Z,74.40
2017-08-16T21:59:43.740Z,74.50
2017-08-16T22:02:11.644Z,74.50
2017-08-16T22:04:39.160Z,74.50
2017-08-16T22:07:06.617Z,74.40
2017-08-16T22:09:34.099Z,74.30
2017-08-16T22:12:01.569Z,74.50
2017-08-16T22:14:29.447Z,74.30
2017-08-16T22:16:57.295Z,74.90
2017-08-16T22:19:25.208Z,75.20
2017-08-16T22:21:52.708Z,75.20
2017-08-16T22:24:20.212Z,75.50
2017-08-16T22:26:48.326Z,76.40
2017-08-16T22:29:15.796Z,76.40
2017-08-16T22:31:43.427Z,76.80
2017-08-16T22:34:10.920Z,76.80
2017-08-16T22:36:38.395Z,77.30
2017-08-16T22:39:05.924Z,77.40
2017-08-16T22:41:33.408Z,77.80
2017-08-16T22:44:00.896Z,78.20
2017-08-16T22:46:28.413Z,78.10
2017-08-16T22:48:57.103Z,78.40
2017-08-16T22:51:24.654Z,78.40
2017-08-16T22:53:52.552Z,78.20
2017-08-16T22:56:20.049Z,78.20
2017-08-16T22:58:47.571Z,78.20
2017-08-16T23:01:15.034Z,78.30
2017-08-16T23:03:42.504Z,78.60
2017-08-16T23:06:09.948Z,78.60
2017-08-16T23:08:37.454Z,78.50
2017-08-16T23:11:04.941Z,78.50
2017-08-16T23:13:32.484Z,78.50
2017-08-16T23:15:59.970Z,78.60
2017-08-16T23:18:27.875Z,78.70
2017-08-16T23:20:55.353Z,78.70
2017-08-16T23:23:24.217Z,78.80
2017-08-16T23:25:52.135Z,79.20
2017-08-16T23:28:19.565Z,79.20
2017-08-16T23:30:47.141Z,79.00
2017-08-16T23:33:14.604Z,79.10
2017-08-16T23:35:42.120Z,79.20
2017-08-16T23:38:09.667Z,79.20
2017-08-16T23:40:37.157Z,79.30
2017-08-16T23:43:05.005Z,79.20
2017-08-16T23:45:32.536Z,79.20
2017-08-16T23:48:00.024Z,79.30
2017-08-16T23:50:27.491Z,79.30
2017-08-16T23:52:54.981Z,79.10
2017-08-16T23:55:22.811Z,79.20
2017-08-16T23:57:50.258Z,79.20
